Time;durP1;ratioP1;P1;durP2;ratioP2;P2;SDS_P1;SDS_P2;PMS_P1;PMS_P2;Temp;Humidity;BMP_temperature;BMP_pressure;BME280_temperature;BME280_humidity;BME280_pressure;Samples;Min_cycle;Max_cycle;Signal;HPM_P1;HPM_P2
2024/04/04 00:01:20;;;;;;;4.57;2.13;;;14.00;86.60;;;;;;4161127;28;20041;-77
2024/04/04 00:03:21;;;;;;;7.88;4.38;;;13.90;86.70;;;;;;4161462;28;20021;-77
2024/04/04 00:05:22;;;;;;;3.40;1.77;;;13.90;87.00;;;;;;4161466;28;20018;-77
2024/04/04 00:07:23;;;;;;;12.50;2.15;;;13.90;87.20;;;;;;4159905;28;20048;-75
2024/04/04 00:09:24;;;;;;;9.27;1.00;;;13.90;87.30;;;;;;4160727;28;20068;-76
2024/04/04 00:11:24;;;;;;;2.05;0.95;;;13.90;87.40;;;;;;4161248;28;20037;-79
2024/04/04 00:13:25;;;;;;;3.33;1.20;;;13.90;87.50;;;;;;4161381;28;20041;-78
2024/04/04 00:15:26;;;;;;;6.50;1.83;;;13.90;87.50;;;;;;4160262;28;20100;-79
2024/04/04 00:17:27;;;;;;;3.67;1.03;;;13.80;87.80;;;;;;4160008;28;20025;-78
2024/04/04 00:19:28;;;;;;;3.63;1.15;;;13.80;87.90;;;;;;4159475;28;20284;-77
2024/04/04 00:21:28;;;;;;;1.75;1.00;;;13.80;88.10;;;;;;4161085;28;20029;-79
2024/04/04 00:23:29;;;;;;;1.00;0.32;;;13.70;88.20;;;;;;4160899;28;20109;-76
2024/04/04 00:25:31;;;;;;;9.50;4.88;;;13.80;88.20;;;;;;4161207;28;20022;-78
2024/04/04 00:27:31;;;;;;;4.25;0.82;;;13.80;88.30;;;;;;4161238;28;20041;-77
2024/04/04 00:29:32;;;;;;;2.30;0.98;;;13.70;88.30;;;;;;4160849;28;20115;-77
2024/04/04 00:31:33;;;;;;;2.08;1.92;;;13.80;88.30;;;;;;4161104;28;20025;-78
2024/04/04 00:33:33;;;;;;;9.57;9.00;;;13.80;88.30;;;;;;4161558;28;20028;-78
2024/04/04 00:35:34;;;;;;;5.15;4.50;;;13.80;88.30;;;;;;4160936;28;20597;-78
2024/04/04 00:37:35;;;;;;;10.88;1.17;;;13.90;88.20;;;;;;4161128;28;20032;-78
2024/04/04 00:39:36;;;;;;;1.90;0.63;;;13.90;88.20;;;;;;4160930;28;20048;-78
2024/04/04 00:41:36;;;;;;;2.22;0.82;;;13.90;88.20;;;;;;4160875;28;20041;-76
2024/04/04 00:43:37;;;;;;;0.73;0.55;;;13.80;88.10;;;;;;4161076;28;20037;-76
2024/04/04 00:45:38;;;;;;;9.82;1.08;;;13.80;88.10;;;;;;4161024;28;20110;-77
2024/04/04 00:47:39;;;;;;;2.20;1.30;;;13.80;88.10;;;;;;4160664;28;20057;-75
2024/04/04 00:49:40;;;;;;;1.73;1.55;;;13.90;88.10;;;;;;4160666;28;20029;-77
2024/04/04 00:51:41;;;;;;;6.25;1.70;;;13.90;88.10;;;;;;4161221;28;20071;-77
2024/04/04 00:53:42;;;;;;;2.50;0.73;;;13.90;88.00;;;;;;4161009;28;20025;-76
2024/04/04 00:55:44;;;;;;;3.53;1.00;;;13.90;87.90;;;;;;4161116;28;20095;-76
2024/04/04 00:57:44;;;;;;;14.13;1.58;;;13.90;87.90;;;;;;4161098;28;20068;-77
2024/04/04 00:59:46;;;;;;;5.88;1.45;;;14.00;87.90;;;;;;4160755;28;20037;-77
2024/04/04 01:01:46;;;;;;;5.57;1.57;;;14.00;87.70;;;;;;4165583;28;20133;-77
2024/04/04 01:03:47;;;;;;;6.63;1.80;;;14.00;87.70;;;;;;4162071;28;20034;-76
2024/04/04 01:05:48;;;;;;;3.03;2.17;;;14.00;87.70;;;;;;4160625;28;20037;-77
2024/04/04 01:07:49;;;;;;;10.45;1.80;;;14.00;87.50;;;;;;4160482;28;20099;-76
2024/04/04 01:09:49;;;;;;;11.02;2.63;;;14.00;87.50;;;;;;4160532;28;20321;-77
2024/04/04 01:11:50;;;;;;;2.53;1.50;;;14.00;87.50;;;;;;4160904;28;20037;-77
2024/04/04 01:13:51;;;;;;;3.40;1.60;;;14.00;87.60;;;;;;4161175;28;20033;-77
2024/04/04 01:15:52;;;;;;;7.95;1.85;;;14.00;87.50;;;;;;4160965;28;20033;-76
2024/04/04 01:17:52;;;;;;;4.63;1.55;;;14.00;87.60;;;;;;4160933;28;20352;-77
2024/04/04 01:19:53;;;;;;;7.88;2.72;;;14.00;87.40;;;;;;4160809;28;20052;-76
2024/04/04 01:21:54;;;;;;;3.30;1.88;;;14.00;87.30;;;;;;4161374;28;20041;-75
2024/04/04 01:23:54;;;;;;;5.75;3.00;;;14.00;87.30;;;;;;4161035;28;20025;-76
2024/04/04 01:25:55;;;;;;;12.00;2.35;;;14.00;87.00;;;;;;4161073;28;20041;-77
2024/04/04 01:27:56;;;;;;;10.45;2.58;;;14.00;87.10;;;;;;4161023;28;20056;-77
2024/04/04 01:29:56;;;;;;;12.88;2.50;;;14.10;87.00;;;;;;4160792;28;20196;-76
2024/04/04 01:31:57;;;;;;;3.65;2.22;;;14.10;86.80;;;;;;4161235;28;20025;-76
2024/04/04 01:33:58;;;;;;;19.38;2.22;;;14.10;86.90;;;;;;4160883;28;20123;-77
2024/04/04 01:35:58;;;;;;;6.60;1.65;;;14.10;86.80;;;;;;4162102;28;20769;-76
2024/04/04 01:37:59;;;;;;;16.48;2.30;;;14.00;86.90;;;;;;4164066;28;20534;-77
2024/04/04 01:40:00;;;;;;;8.95;3.53;;;14.00;87.10;;;;;;4163647;28;20037;-77
2024/04/04 01:42:00;;;;;;;4.40;1.92;;;14.00;87.20;;;;;;4163803;28;20041;-76
2024/04/04 01:44:01;;;;;;;8.32;2.78;;;14.00;87.20;;;;;;4163707;28;20033;-78
2024/04/04 01:46:02;;;;;;;5.85;4.53;;;14.00;87.20;;;;;;4163656;28;20035;-76
2024/04/04 01:48:03;;;;;;;8.75;2.15;;;14.00;87.10;;;;;;4163805;28;20037;-75
2024/04/04 01:50:05;;;;;;;15.32;3.47;;;14.00;87.20;;;;;;4163518;28;20025;-77
2024/04/04 01:52:06;;;;;;;11.85;2.55;;;14.00;87.30;;;;;;4163745;28;20095;-76
2024/04/04 01:54:07;;;;;;;12.48;3.10;;;14.00;87.40;;;;;;4163841;28;20030;-77
2024/04/04 01:56:07;;;;;;;5.15;3.58;;;14.10;87.40;;;;;;4163774;28;20048;-76
2024/04/04 01:58:08;;;;;;;10.02;2.33;;;14.10;87.40;;;;;;4162713;28;20029;-77
2024/04/04 02:00:09;;;;;;;13.38;1.75;;;14.10;87.40;;;;;;4163457;28;20025;-76
2024/04/04 02:02:10;;;;;;;4.50;1.75;;;14.10;87.30;;;;;;4163721;28;20155;-77
2024/04/04 02:04:10;;;;;;;2.60;1.23;;;14.00;87.30;;;;;;4163575;28;20071;-76
2024/04/04 02:06:11;;;;;;;6.07;0.88;;;14.00;87.40;;;;;;4162253;28;20076;-77
2024/04/04 02:08:12;;;;;;;5.55;1.35;;;14.00;87.50;;;;;;4163281;28;20395;-76
2024/04/04 02:10:12;;;;;;;0.50;0.50;;;14.00;87.40;;;;;;4162990;28;20024;-75
2024/04/04 02:12:13;;;;;;;7.30;1.42;;;14.00;87.50;;;;;;4163329;28;20033;-75
2024/04/04 02:14:14;;;;;;;6.10;1.35;;;13.90;87.40;;;;;;4163251;28;20021;-78
2024/04/04 02:16:16;;;;;;;3.92;0.88;;;13.90;87.30;;;;;;4163403;28;20762;-76
2024/04/04 02:18:17;;;;;;;1.45;0.55;;;13.90;87.20;;;;;;4163152;28;20029;-77
2024/04/04 02:20:18;;;;;;;4.97;0.77;;;14.00;87.20;;;;;;4162868;28;20112;-76
2024/04/04 02:22:18;;;;;;;2.33;0.32;;;13.90;87.10;;;;;;4163253;28;20101;-76
2024/04/04 02:24:19;;;;;;;0.60;0.60;;;14.00;86.90;;;;;;4163188;28;20087;-77
2024/04/04 02:26:20;;;;;;;1.58;0.50;;;14.00;86.90;;;;;;4163309;28;20037;-76
2024/04/04 02:28:20;;;;;;;0.38;0.25;;;13.90;86.80;;;;;;4163000;28;20029;-76
2024/04/04 02:30:21;;;;;;;0.60;0.60;;;13.90;86.70;;;;;;4161499;28;20082;-76
2024/04/04 02:32:21;;;;;;;1.15;0.50;;;13.90;86.50;;;;;;4162884;28;20064;-76
2024/04/04 02:34:22;;;;;;;5.57;0.40;;;14.00;86.50;;;;;;4163094;28;20021;-76
2024/04/04 02:36:24;;;;;;;0.28;0.28;;;13.90;86.50;;;;;;4162834;28;20033;-77
2024/04/04 02:38:26;;;;;;;0.20;0.20;;;13.90;86.30;;;;;;4161448;28;20025;-76
2024/04/04 02:40:27;;;;;;;1.95;0.50;;;13.80;86.40;;;;;;4162409;28;20040;-76
2024/04/04 02:42:28;;;;;;;0.47;0.47;;;13.80;86.50;;;;;;4161346;28;20099;-76
2024/04/04 02:44:28;;;;;;;0.10;0.10;;;13.80;86.40;;;;;;4162836;28;20017;-77
2024/04/04 02:46:29;;;;;;;1.77;0.20;;;13.80;86.50;;;;;;4162683;28;20110;-77
2024/04/04 02:48:30;;;;;;;0.95;0.55;;;13.80;86.50;;;;;;4162608;28;20037;-78
2024/04/04 02:50:30;;;;;;;0.75;0.50;;;13.90;86.50;;;;;;4162256;28;20060;-77
2024/04/04 02:52:31;;;;;;;3.20;0.57;;;13.90;86.30;;;;;;4162653;28;20033;-77
2024/04/04 02:54:32;;;;;;;0.40;0.40;;;13.90;86.30;;;;;;4162870;28;20035;-77
2024/04/04 02:56:32;;;;;;;4.10;0.98;;;13.80;86.50;;;;;;4162751;28;20466;-78
2024/04/04 02:58:33;;;;;;;3.40;0.65;;;13.90;86.60;;;;;;4162875;28;20033;-76
2024/04/04 03:00:34;;;;;;;1.55;0.28;;;14.00;86.60;;;;;;4162411;28;20017;-75
2024/04/04 03:02:35;;;;;;;0.30;0.30;;;14.00;86.60;;;;;;4162624;28;20044;-76
2024/04/04 03:04:37;;;;;;;1.65;0.55;;;14.00;86.50;;;;;;4162631;28;20103;-76
2024/04/04 03:06:37;;;;;;;1.85;0.60;;;14.00;86.60;;;;;;4161165;28;20029;-78
2024/04/04 03:08:38;;;;;;;3.20;1.13;;;13.90;86.60;;;;;;4162441;28;20100;-77
2024/04/04 03:10:39;;;;;;;3.30;0.90;;;14.00;86.80;;;;;;4162037;28;20117;-77
2024/04/04 03:12:39;;;;;;;1.55;0.52;;;14.00;86.70;;;;;;4162352;28;20176;-75
2024/04/04 03:14:40;;;;;;;9.23;1.55;;;14.00;86.60;;;;;;4162403;28;20407;-77
2024/04/04 03:16:41;;;;;;;4.65;0.88;;;14.00;86.60;;;;;;4162588;28;20033;-76
2024/04/04 03:18:41;;;;;;;0.75;0.55;;;14.00;86.50;;;;;;4162497;28;20127;-77
2024/04/04 03:20:42;;;;;;;2.25;0.57;;;14.00;86.60;;;;;;4160898;28;20642;-77
2024/04/04 03:22:43;;;;;;;4.55;0.82;;;14.10;86.40;;;;;;4162364;28;20076;-77
2024/04/04 03:24:43;;;;;;;4.28;0.55;;;14.00;86.30;;;;;;4160876;28;20025;-77
2024/04/04 03:26:44;;;;;;;6.72;1.58;;;14.00;86.30;;;;;;4162030;28;20029;-77
2024/04/04 03:28:45;;;;;;;2.80;0.90;;;14.00;86.40;;;;;;4162139;28;20380;-77
2024/04/04 03:30:45;;;;;;;3.00;0.85;;;14.00;86.50;;;;;;4162202;28;20026;-76
2024/04/04 03:32:46;;;;;;;9.45;1.55;;;14.00;86.60;;;;;;4162340;28;20045;-77
2024/04/04 03:34:47;;;;;;;10.10;1.10;;;14.00;86.40;;;;;;4162197;28;20025;-77
2024/04/04 03:36:48;;;;;;;5.20;1.67;;;14.00;86.30;;;;;;4161935;28;20114;-76
2024/04/04 03:38:50;;;;;;;5.60;1.70;;;13.90;86.40;;;;;;4162101;28;20029;-77
2024/04/04 03:40:54;;;;;;;4.25;2.38;;;14.00;86.40;;;;;;4161431;28;20025;-77
2024/04/04 03:42:55;;;;;;;5.60;1.75;;;14.00;86.20;;;;;;4161850;28;20034;-76
2024/04/04 03:44:55;;;;;;;8.85;2.17;;;14.00;86.00;;;;;;4161979;28;20688;-77
2024/04/04 03:46:56;;;;;;;5.40;2.35;;;13.90;86.00;;;;;;4161457;28;20033;-76
2024/04/04 03:48:57;;;;;;;15.45;1.83;;;13.90;85.90;;;;;;4160777;28;20029;-77
2024/04/04 03:50:58;;;;;;;13.40;4.22;;;13.90;85.80;;;;;;4160772;28;20499;-77
2024/04/04 03:52:58;;;;;;;8.25;3.30;;;13.80;85.80;;;;;;4161765;28;20064;-76
2024/04/04 03:55:00;;;;;;;7.55;2.53;;;13.90;85.80;;;;;;4161295;28;20026;-76
2024/04/04 03:57:01;;;;;;;9.70;3.00;;;13.90;85.70;;;;;;4156668;28;20117;-77
2024/04/04 03:59:02;;;;;;;15.52;2.72;;;13.90;85.70;;;;;;4160030;28;20069;-79
2024/04/04 04:01:03;;;;;;;25.23;11.40;;;13.90;85.60;;;;;;4161067;28;20033;-76
2024/04/04 04:03:04;;;;;;;19.45;5.70;;;13.90;85.60;;;;;;4160664;28;20034;-77
2024/04/04 04:05:06;;;;;;;8.52;3.05;;;13.90;85.70;;;;;;4159440;28;20021;-76
2024/04/04 04:07:07;;;;;;;12.95;3.03;;;13.80;85.60;;;;;;4160677;28;20045;-77
2024/04/04 04:09:07;;;;;;;11.10;3.78;;;13.90;85.60;;;;;;4160068;28;20375;-76
2024/04/04 04:11:08;;;;;;;6.28;4.65;;;13.90;85.60;;;;;;4160445;28;20442;-77
2024/04/04 04:13:09;;;;;;;22.27;3.97;;;13.90;85.60;;;;;;4160314;28;20399;-78
2024/04/04 04:15:10;;;;;;;21.05;5.03;;;13.90;85.70;;;;;;4160659;28;20478;-78
2024/04/04 04:17:10;;;;;;;19.30;4.57;;;13.90;85.50;;;;;;4160645;28;20104;-76
2024/04/04 04:19:13;;;;;;;15.73;4.20;;;14.00;85.40;;;;;;4160073;28;20415;-77
2024/04/04 04:21:24;;;;;;;25.75;4.38;;;13.90;85.50;;;;;;4160976;28;20036;-77
2024/04/04 04:23:25;;;;;;;14.95;3.83;;;13.90;85.40;;;;;;4160562;28;20116;-76
2024/04/04 04:25:25;;;;;;;25.58;5.53;;;13.90;85.20;;;;;;4160427;28;20042;-77
2024/04/04 04:27:26;;;;;;;17.42;4.93;;;13.90;85.30;;;;;;4160317;28;20841;-76
2024/04/04 04:29:27;;;;;;;14.20;5.60;;;13.90;85.50;;;;;;4159977;28;20017;-78
2024/04/04 04:31:35;;;;;;;24.05;4.55;;;14.00;85.40;;;;;;4160277;28;20514;-78
2024/04/04 04:33:35;;;;;;;31.75;4.45;;;14.00;85.30;;;;;;4160273;28;20029;-76
2024/04/04 04:35:36;;;;;;;23.77;3.97;;;13.90;85.40;;;;;;4160150;28;20033;-77
2024/04/04 04:37:37;;;;;;;24.67;4.95;;;13.90;85.40;;;;;;4160888;28;20017;-76
2024/04/04 04:39:37;;;;;;;27.27;5.00;;;14.00;85.40;;;;;;4160449;28;20029;-78
2024/04/04 04:41:38;;;;;;;29.20;4.70;;;14.00;85.40;;;;;;4160556;28;20434;-76
2024/04/04 04:43:42;;;;;;;21.63;4.70;;;14.00;85.20;;;;;;4160320;28;20044;-78
2024/04/04 04:45:43;;;;;;;31.13;5.00;;;13.90;85.30;;;;;;4160150;28;20025;-75
2024/04/04 04:47:44;;;;;;;20.42;3.88;;;13.90;85.50;;;;;;4158661;28;20052;-77
2024/04/04 04:49:44;;;;;;;23.33;5.50;;;13.90;85.50;;;;;;4160057;28;20026;-76
2024/04/04 04:51:45;;;;;;;30.67;6.57;;;13.80;85.60;;;;;;4159140;28;20620;-77
2024/04/04 04:53:46;;;;;;;16.92;4.45;;;13.80;85.70;;;;;;4161310;28;20239;-77
2024/04/04 04:55:50;;;;;;;21.30;5.72;;;13.90;85.80;;;;;;4161095;28;20041;-77
2024/04/04 04:57:51;;;;;;;22.25;5.35;;;13.90;85.60;;;;;;4160929;28;20636;-77
2024/04/04 04:59:52;;;;;;;24.83;5.35;;;13.80;85.70;;;;;;4160740;28;20021;-77
2024/04/04 05:01:54;;;;;;;22.38;6.13;;;13.90;85.70;;;;;;4161308;28;20092;-77
2024/04/04 05:03:54;;;;;;;25.45;5.65;;;13.80;85.60;;;;;;4161460;28;20030;-75
2024/04/04 05:06:01;;;;;;;38.47;5.80;;;13.90;85.60;;;;;;4161167;28;20025;-79
2024/04/04 05:08:02;;;;;;;27.65;6.13;;;13.90;85.60;;;;;;4160937;28;20562;-77
2024/04/04 05:10:03;;;;;;;14.38;4.40;;;13.90;85.50;;;;;;4162333;28;20060;-77
2024/04/04 05:12:05;;;;;;;21.95;4.28;;;14.00;85.40;;;;;;4164401;28;20025;-78
2024/04/04 05:14:05;;;;;;;10.82;4.72;;;14.00;85.20;;;;;;4164436;28;20556;-77
2024/04/04 05:16:06;;;;;;;26.73;6.57;;;14.00;85.10;;;;;;4164419;28;20045;-76
2024/04/04 05:18:07;;;;;;;32.70;6.18;;;14.00;85.00;;;;;;4164211;28;20051;-74
2024/04/04 05:20:08;;;;;;;32.20;5.75;;;14.00;84.70;;;;;;4164124;28;20159;-77
2024/04/04 05:22:09;;;;;;;27.20;5.67;;;14.00;84.70;;;;;;4164143;28;20033;-78
2024/04/04 05:24:10;;;;;;;30.02;6.10;;;14.00;84.80;;;;;;4164327;28;20355;-77
2024/04/04 05:26:12;;;;;;;23.92;6.68;;;14.00;84.60;;;;;;4164319;28;20546;-78
2024/04/04 05:28:12;;;;;;;;;;;14.00;84.60;;;;;;4164750;28;20040;-77
2024/04/04 05:30:16;;;;;;;23.92;6.15;;;14.00;84.60;;;;;;4163666;28;19909;-76
2024/04/04 05:32:17;;;;;;;31.65;5.25;;;14.00;84.30;;;;;;4164248;28;20042;-77
2024/04/04 05:34:18;;;;;;;35.90;6.18;;;14.00;84.30;;;;;;4164202;28;20025;-76
2024/04/04 05:36:18;;;;;;;20.02;5.05;;;13.90;84.50;;;;;;4164099;28;20451;-77
2024/04/04 05:38:19;;;;;;;15.45;4.45;;;13.90;84.70;;;;;;4164090;28;20028;-77
2024/04/04 05:40:20;;;;;;;33.17;6.38;;;14.00;84.70;;;;;;4163771;28;20040;-78
2024/04/04 05:42:20;;;;;;;37.30;8.60;;;13.90;84.50;;;;;;4163815;28;20124;-78
2024/04/04 05:44:21;;;;;;;30.73;6.25;;;14.00;84.40;;;;;;4164169;28;20037;-78
2024/04/04 05:46:22;;;;;;;18.77;5.80;;;14.00;84.50;;;;;;4164252;28;20097;-78
2024/04/04 05:48:22;;;;;;;18.67;4.65;;;14.00;84.20;;;;;;4163325;28;20037;-78
2024/04/04 05:50:23;;;;;;;31.88;7.10;;;14.00;84.10;;;;;;4163380;28;20136;-79
2024/04/04 05:52:24;;;;;;;38.13;7.00;;;14.00;84.10;;;;;;4163770;28;20411;-77
2024/04/04 05:54:25;;;;;;;17.98;6.03;;;13.90;84.30;;;;;;4163905;28;20033;-77
2024/04/04 05:56:25;;;;;;;21.55;7.35;;;13.90;84.40;;;;;;4164011;28;20034;-78
2024/04/04 05:58:26;;;;;;;31.08;6.78;;;14.00;84.40;;;;;;4163861;28;20029;-77
2024/04/04 06:00:27;;;;;;;42.15;8.80;;;14.00;84.10;;;;;;4162043;28;20037;-77
2024/04/04 06:02:27;;;;;;;33.95;7.28;;;14.00;84.10;;;;;;4163687;28;20021;-78
2024/04/04 06:04:29;;;;;;;34.95;6.25;;;14.00;84.10;;;;;;4163620;28;20246;-77
2024/04/04 06:06:29;;;;;;;34.15;7.82;;;13.90;84.20;;;;;;4163698;28;20872;-77
2024/04/04 06:08:30;;;;;;;20.65;6.38;;;13.90;84.00;;;;;;4163621;28;20041;-78
2024/04/04 06:10:31;;;;;;;27.13;6.95;;;13.90;84.00;;;;;;4162702;28;20029;-78
2024/04/04 06:12:31;;;;;;;22.10;5.72;;;14.00;84.00;;;;;;4163410;28;20379;-77
2024/04/04 06:14:33;;;;;;;20.75;6.15;;;14.00;83.90;;;;;;4163694;28;20114;-78
2024/04/04 06:16:35;;;;;;;19.80;7.35;;;13.90;83.90;;;;;;4163490;28;20064;-79
2024/04/04 06:18:35;;;;;;;45.38;8.35;;;13.90;83.90;;;;;;4163379;28;20029;-79
2024/04/04 06:20:36;;;;;;;34.70;5.47;;;14.00;83.70;;;;;;4163302;28;20060;-78
2024/04/04 06:22:37;;;;;;;22.85;5.85;;;14.00;83.60;;;;;;4162644;28;20109;-78
2024/04/04 06:24:38;;;;;;;30.02;4.68;;;14.00;83.60;;;;;;4163491;28;20061;-75
2024/04/04 06:26:40;;;;;;;28.92;5.25;;;14.00;83.40;;;;;;4163700;28;20033;-79
2024/04/04 06:28:40;;;;;;;24.05;5.93;;;14.00;83.60;;;;;;4163088;28;20044;-80
2024/04/04 06:30:41;;;;;;;26.73;5.82;;;14.00;83.70;;;;;;4162499;28;20033;-79
2024/04/04 06:32:42;;;;;;;17.95;4.78;;;14.00;83.60;;;;;;4163103;28;20507;-79
2024/04/04 06:34:42;;;;;;;22.38;6.38;;;14.00;83.30;;;;;;4163001;28;20026;-79
2024/04/04 06:36:43;;;;;;;25.08;5.47;;;14.00;83.10;;;;;;4163125;28;20377;-78
2024/04/04 06:38:45;;;;;;;32.40;7.10;;;14.00;83.10;;;;;;4162791;28;20061;-79
2024/04/04 06:40:45;;;;;;;37.83;4.93;;;14.00;83.10;;;;;;4162862;28;20021;-78
2024/04/04 06:42:46;;;;;;;11.10;3.95;;;14.00;83.10;;;;;;4161784;28;20159;-77
2024/04/04 06:44:47;;;;;;;23.10;6.32;;;14.00;82.90;;;;;;4163011;28;20041;-78
2024/04/04 06:46:48;;;;;;;45.47;39.13;;;14.00;83.00;;;;;;4162845;28;20126;-77
2024/04/04 06:48:49;;;;;;;18.60;5.45;;;14.00;83.00;;;;;;4162524;28;20041;-76
2024/04/04 06:50:50;;;;;;;21.55;5.82;;;14.00;82.90;;;;;;4161483;28;20490;-77
2024/04/04 06:52:51;;;;;;;25.08;5.55;;;14.10;82.90;;;;;;4163309;28;20065;-79
2024/04/04 06:54:52;;;;;;;25.17;8.90;;;14.10;82.80;;;;;;4163329;28;20506;-78
2024/04/04 06:56:52;;;;;;;20.58;5.28;;;14.20;82.80;;;;;;4163181;28;20366;-78
2024/04/04 06:58:53;;;;;;;32.03;6.45;;;14.20;82.90;;;;;;4162722;28;20112;-80
2024/04/04 07:01:00;;;;;;;22.98;9.90;;;14.20;82.80;;;;;;4162768;28;20048;-77
2024/04/04 07:03:01;;;;;;;21.45;9.93;;;14.30;82.60;;;;;;4162951;28;20028;-78
2024/04/04 07:05:02;;;;;;;24.48;10.68;;;14.40;82.50;;;;;;4163074;28;20034;-76
2024/04/04 07:07:02;;;;;;;40.53;9.52;;;14.20;82.40;;;;;;4163077;28;20030;-77
2024/04/04 07:09:06;;;;;;;18.02;8.50;;;14.20;82.60;;;;;;4162336;28;20423;-77
2024/04/04 07:11:09;;;;;;;31.10;8.52;;;14.30;82.80;;;;;;4162435;28;20029;-78
2024/04/04 07:13:10;;;;;;;29.52;6.85;;;14.20;82.60;;;;;;4162590;28;20474;-78
2024/04/04 07:15:10;;;;;;;32.45;7.22;;;14.30;82.60;;;;;;4162780;28;20022;-78
2024/04/04 07:17:12;;;;;;;21.92;14.57;;;14.30;82.60;;;;;;4162262;28;20034;-76
2024/04/04 07:19:13;;;;;;;18.08;9.73;;;14.20;82.60;;;;;;4162098;28;20014;-77
2024/04/04 07:21:13;;;;;;;24.90;6.93;;;14.40;82.60;;;;;;4161555;28;20044;-77
2024/04/04 07:23:14;;;;;;;27.85;9.45;;;14.40;82.40;;;;;;4162082;28;20080;-77
2024/04/04 07:25:16;;;;;;;22.52;5.75;;;14.40;82.10;;;;;;4161778;28;20085;-77
2024/04/04 07:27:17;;;;;;;19.58;6.85;;;14.30;82.40;;;;;;4160685;28;20416;-79
2024/04/04 07:29:18;;;;;;;26.08;5.70;;;14.30;82.20;;;;;;4161593;28;20021;-80
2024/04/04 07:31:18;;;;;;;24.23;5.18;;;14.30;82.20;;;;;;4162126;28;20040;-78
2024/04/04 07:33:19;;;;;;;22.35;5.68;;;14.30;82.50;;;;;;4160278;28;20065;-78
2024/04/04 07:35:20;;;;;;;11.98;4.55;;;14.40;82.30;;;;;;4165089;28;20029;-77
2024/04/04 07:37:20;;;;;;;31.05;7.47;;;14.40;82.20;;;;;;4162275;28;20056;-78
2024/04/04 07:39:22;;;;;;;17.23;6.10;;;14.50;82.10;;;;;;4164434;28;20040;-78
2024/04/04 07:41:22;;;;;;;22.75;5.25;;;14.60;81.90;;;;;;4162005;28;20041;-77
2024/04/04 07:43:23;;;;;;;22.80;5.55;;;14.70;81.50;;;;;;4161180;28;20104;-76
2024/04/04 07:45:24;;;;;;;36.25;4.38;;;14.70;81.60;;;;;;4162288;28;20034;-77
2024/04/04 07:47:25;;;;;;;22.30;5.28;;;14.70;81.00;;;;;;4162028;28;20044;-75
2024/04/04 07:49:25;;;;;;;24.42;7.03;;;14.70;81.30;;;;;;4161388;28;20048;-79
2024/04/04 07:51:26;;;;;;;34.53;6.18;;;14.80;81.30;;;;;;4161893;28;20036;-79
2024/04/04 07:53:27;;;;;;;14.90;4.57;;;14.80;81.20;;;;;;4162054;28;20029;-77
2024/04/04 07:55:28;;;;;;;19.25;5.38;;;14.80;80.80;;;;;;4162315;28;20040;-77
2024/04/04 07:57:29;;;;;;;44.95;29.55;;;14.70;80.90;;;;;;4162125;28;20112;-79
2024/04/04 07:59:29;;;;;;;28.75;16.30;;;14.80;81.40;;;;;;4161671;28;20182;-79
2024/04/04 08:01:30;;;;;;;33.75;23.60;;;14.90;81.40;;;;;;4161984;28;20030;-77
2024/04/04 08:03:34;;;;;;;32.35;18.83;;;15.00;81.20;;;;;;4162027;28;20021;-78
2024/04/04 08:05:35;;;;;;;38.92;18.38;;;15.10;80.90;;;;;;4161971;28;20028;-78
2024/04/04 08:07:36;;;;;;;29.52;18.45;;;15.20;80.50;;;;;;4161820;28;20066;-80
2024/04/04 08:09:37;;;;;;;21.47;14.93;;;15.20;79.80;;;;;;4161638;28;20056;-80
2024/04/04 08:11:38;;;;;;;30.27;18.58;;;15.20;79.30;;;;;;4162030;28;20028;-78
2024/04/04 08:13:39;;;;;;;27.00;20.40;;;15.20;79.50;;;;;;4161561;28;20038;-77
2024/04/04 08:15:40;;;;;;;25.63;15.00;;;15.30;79.20;;;;;;4161591;28;20424;-79
2024/04/04 08:17:46;;;;;;;29.33;15.75;;;15.30;79.20;;;;;;4161693;28;20041;-80
2024/04/04 08:19:47;;;;;;;23.02;16.35;;;15.30;79.10;;;;;;4159949;28;21251;-77
2024/04/04 08:21:48;;;;;;;32.13;16.05;;;15.40;79.60;;;;;;4161089;28;20493;-77
2024/04/04 08:23:48;;;;;;;27.35;19.92;;;15.50;78.40;;;;;;4161613;28;20033;-77
2024/04/04 08:25:58;;;;;;;58.92;54.25;;;15.50;78.00;;;;;;4162105;28;20048;-78
2024/04/04 08:27:59;;;;;;;64.40;58.72;;;15.50;78.10;;;;;;4161517;28;20033;-78
2024/04/04 08:30:00;;;;;;;23.52;4.30;;;15.70;78.20;;;;;;4161324;28;20083;-81
2024/04/04 08:32:00;;;;;;;24.45;5.65;;;15.70;77.60;;;;;;4161606;28;20056;-79
2024/04/04 08:34:01;;;;;;;28.45;6.07;;;15.60;76.50;;;;;;4161431;28;20128;-78
2024/04/04 08:36:02;;;;;;;23.70;4.97;;;15.70;77.80;;;;;;4161449;28;20021;-78
2024/04/04 08:38:03;;;;;;;21.27;4.25;;;15.70;77.20;;;;;;4161621;28;20033;-78
2024/04/04 08:40:04;;;;;;;30.67;4.88;;;15.70;76.90;;;;;;4161157;28;20029;-79
2024/04/04 08:42:05;;;;;;;30.67;5.20;;;15.80;77.20;;;;;;4161301;28;20049;-78
2024/04/04 08:44:08;;;;;;;21.17;6.20;;;15.90;76.30;;;;;;4160478;28;20396;-80
2024/04/04 08:46:11;;;;;;;23.77;4.60;;;15.80;75.80;;;;;;4159038;28;20029;-78
2024/04/04 08:48:15;;;;;;;17.65;5.32;;;15.80;76.50;;;;;;4160636;28;20022;-80
2024/04/04 08:50:16;;;;;;;18.77;4.60;;;15.90;76.40;;;;;;4158627;28;20052;-74
2024/04/04 08:52:16;;;;;;;25.55;4.80;;;15.90;75.40;;;;;;4160729;28;20037;-78
2024/04/04 08:54:20;;;;;;;31.20;4.28;;;15.90;75.10;;;;;;4159297;28;20037;-77
2024/04/04 08:56:21;;;;;;;15.77;4.13;;;15.90;75.20;;;;;;4160883;28;20029;-80
2024/04/04 08:58:23;;;;;;;23.15;3.65;;;16.00;74.70;;;;;;4160615;28;20055;-78
2024/04/04 09:00:24;;;;;;;21.85;4.03;;;16.00;74.90;;;;;;4160028;28;20415;-79
2024/04/04 09:02:26;;;;;;;9.65;4.80;;;16.00;75.30;;;;;;4160397;28;20055;-74
2024/04/04 09:04:28;;;;;;;27.83;5.15;;;16.20;74.60;;;;;;4160372;28;20487;-81
2024/04/04 09:06:29;;;;;;;13.18;4.20;;;16.00;73.90;;;;;;4160118;28;20060;-76
2024/04/04 09:08:30;;;;;;;15.05;4.22;;;16.00;73.70;;;;;;4160009;28;20045;-78
2024/04/04 09:10:31;;;;;;;26.48;4.03;;;16.00;73.30;;;;;;4160115;28;20442;-77
2024/04/04 09:12:32;;;;;;;9.68;3.65;;;16.10;73.70;;;;;;4160202;28;20021;-80
2024/04/04 09:14:33;;;;;;;17.80;3.33;;;16.10;72.90;;;;;;4160218;28;20037;-78
2024/04/04 09:16:33;;;;;;;18.73;3.30;;;16.10;72.60;;;;;;4160052;28;20045;-79
2024/04/04 09:18:34;;;;;;;21.05;4.45;;;16.20;73.20;;;;;;4160090;28;20410;-75
2024/04/04 09:20:38;;;;;;;18.48;4.93;;;16.30;71.80;;;;;;4160415;28;20037;-77
2024/04/04 09:22:39;;;;;;;19.92;5.85;;;16.30;71.70;;;;;;4160605;28;20029;-79
2024/04/04 09:24:40;;;;;;;24.88;3.78;;;16.40;71.80;;;;;;4160426;28;20030;-79
2024/04/04 09:26:43;;;;;;;15.70;3.88;;;16.50;70.70;;;;;;4160585;28;20487;-76
2024/04/04 09:28:43;;;;;;;17.02;3.42;;;16.50;69.90;;;;;;4159925;28;20407;-78
2024/04/04 09:30:48;;;;;;;21.88;3.75;;;16.50;69.20;;;;;;4153380;28;20036;-79
2024/04/04 09:32:49;;;;;;;16.17;4.50;;;16.40;68.80;;;;;;4160371;28;20025;-78
2024/04/04 09:34:50;;;;;;;19.77;2.92;;;16.50;68.80;;;;;;4160290;28;20464;-80
2024/04/04 09:36:52;;;;;;;14.40;2.72;;;16.60;69.40;;;;;;4160829;28;20379;-79
2024/04/04 09:38:53;;;;;;;22.30;3.78;;;16.60;68.10;;;;;;4160556;28;20148;-79
2024/04/04 09:40:55;;;;;;;11.35;3.03;;;16.60;68.50;;;;;;4160225;28;20025;-78
2024/04/04 09:43:00;;;;;;;6.50;2.22;;;16.70;68.90;;;;;;4161147;28;20491;-78
2024/04/04 09:45:01;;;;;;;13.20;5.80;;;16.80;67.70;;;;;;4160958;28;20048;-80
2024/04/04 09:47:03;;;;;;;20.83;4.55;;;16.70;67.90;;;;;;4160967;28;20037;-80
2024/04/04 09:49:06;;;;;;;26.25;5.18;;;16.80;67.20;;;;;;4168936;28;20111;-79
2024/04/04 09:51:07;;;;;;;13.20;3.47;;;16.80;66.30;;;;;;4160818;28;20036;-78
2024/04/04 09:53:13;;;;;;;11.70;4.30;;;16.70;66.60;;;;;;4156626;28;20488;-81
2024/04/04 09:55:16;;;;;;;25.75;4.40;;;16.80;66.10;;;;;;4160891;28;20018;-76
2024/04/04 09:57:18;;;;;;;13.13;4.72;;;16.80;66.90;;;;;;4162302;28;20038;-79
2024/04/04 09:59:30;;;;;;;26.20;5.37;;;16.80;65.70;;;;;;4163807;28;20026;-77
2024/04/04 10:01:34;;;;;;;13.02;3.45;;;16.80;65.20;;;;;;4151131;28;20276;-79
2024/04/04 10:03:36;;;;;;;8.55;2.75;;;17.00;66.30;;;;;;4159709;28;20403;-80
2024/04/04 10:05:36;;;;;;;19.77;3.28;;;17.00;65.20;;;;;;4162594;28;20454;-80
2024/04/04 10:07:37;;;;;;;12.55;3.45;;;17.00;65.60;;;;;;4163663;28;20033;-79
2024/04/04 10:09:39;;;;;;;19.23;3.67;;;17.00;65.00;;;;;;4167684;28;20033;-80
2024/04/04 10:11:40;;;;;;;12.60;4.30;;;17.00;64.30;;;;;;4163498;28;20502;-80
2024/04/04 10:13:48;;;;;;;11.27;3.72;;;17.00;64.60;;;;;;4163368;28;20030;-80
2024/04/04 10:15:50;;;;;;;11.32;4.38;;;16.90;63.90;;;;;;4163366;28;20025;-78
2024/04/04 10:17:54;;;;;;;17.02;3.63;;;17.00;64.70;;;;;;4158285;28;20032;-79
2024/04/04 10:19:56;;;;;;;20.45;4.22;;;17.00;64.80;;;;;;4162988;28;20522;-80
2024/04/04 10:21:56;;;;;;;14.57;4.55;;;17.20;65.10;;;;;;4162393;28;20061;-77
2024/04/04 10:24:01;;;;;;;19.42;3.53;;;17.40;63.50;;;;;;4162553;28;20037;-78
2024/04/04 10:26:05;;;;;;;23.77;4.20;;;17.40;64.00;;;;;;4162715;28;20629;-79